sensor_id;sensor_type;location;lat;lon;timestamp;temperature;humidity
30308;DHT22;17114;52.314;8.910;2023-04-01T00:01:19;9.40;99.90
30308;DHT22;17114;52.314;8.910;2023-04-01T00:03:46;9.50;99.90
30308;DHT22;17114;52.314;8.910;2023-04-01T00:06:16;9.60;99.90
30308;DHT22;17114;52.314;8.910;2023-04-01T00:08:43;9.50;99.90
30308;DHT22;17114;52.314;8.910;2023-04-01T00:11:11;9.50;99.90
30308;DHT22;17114;52.314;8.910;2023-04-01T00:13:39;9.50;99.90
30308;DHT22;17114;52.314;8.910;2023-04-01T00:16:06;9.50;99.90
30308;DHT22;17114;52.314;8.910;2023-04-01T00:18:47;9.50;99.90
30308;DHT22;17114;52.314;8.910;2023-04-01T00:21:15;9.50;99.90
30308;DHT22;17114;52.314;8.910;2023-04-01T00:23:42;9.50;99.90
30308;DHT22;17114;52.314;8.910;2023-04-01T00:26:10;9.40;99.90
30308;DHT22;17114;52.314;8.910;2023-04-01T00:28:39;9.30;99.90
30308;DHT22;17114;52.314;8.910;2023-04-01T00:31:08;9.50;99.90
30308;DHT22;17114;52.314;8.910;2023-04-01T00:33:35;9.60;99.90
30308;DHT22;17114;52.314;8.910;2023-04-01T00:36:10;9.50;99.90
30308;DHT22;17114;52.314;8.910;2023-04-01T00:38:37;9.50;99.90
30308;DHT22;17114;52.314;8.910;2023-04-01T00:41:05;9.40;99.90
30308;DHT22;17114;52.314;8.910;2023-04-01T00:43:33;9.30;99.90
30308;DHT22;17114;52.314;8.910;2023-04-01T00:46:00;9.50;99.90
30308;DHT22;17114;52.314;8.910;2023-04-01T00:48:33;9.70;99.90
30308;DHT22;17114;52.314;8.910;2023-04-01T00:51:06;9.50;99.90
30308;DHT22;17114;52.314;8.910;2023-04-01T00:53:36;9.50;99.90
30308;DHT22;17114;52.314;8.910;2023-04-01T00:56:10;9.50;99.90
30308;DHT22;17114;52.314;8.910;2023-04-01T00:58:41;9.50;99.90
30308;DHT22;17114;52.314;8.910;2023-04-01T01:01:10;9.60;99.90
30308;DHT22;17114;52.314;8.910;2023-04-01T01:03:37;9.50;99.90
30308;DHT22;17114;52.314;8.910;2023-04-01T01:06:20;9.60;99.90
30308;DHT22;17114;52.314;8.910;2023-04-01T01:12:00;9.60;99.90
30308;DHT22;17114;52.314;8.910;2023-04-01T01:14:33;9.60;99.90
30308;DHT22;17114;52.314;8.910;2023-04-01T01:19:50;9.70;99.90
30308;DHT22;17114;52.314;8.910;2023-04-01T01:25:50;9.70;99.90
30308;DHT22;17114;52.314;8.910;2023-04-01T01:31:07;9.70;99.90
30308;DHT22;17114;52.314;8.910;2023-04-01T01:33:48;9.70;99.90
30308;DHT22;17114;52.314;8.910;2023-04-01T01:36:19;9.70;99.90
30308;DHT22;17114;52.314;8.910;2023-04-01T01:38:48;9.70;99.90
30308;DHT22;17114;52.314;8.910;2023-04-01T01:41:17;9.70;99.90
30308;DHT22;17114;52.314;8.910;2023-04-01T01:43:48;9.70;99.90
30308;DHT22;17114;52.314;8.910;2023-04-01T01:46:19;9.60;99.90
30308;DHT22;17114;52.314;8.910;2023-04-01T01:48:48;9.60;99.90
30308;DHT22;17114;52.314;8.910;2023-04-01T01:51:18;9.60;99.90
30308;DHT22;17114;52.314;8.910;2023-04-01T01:53:46;9.60;99.90
30308;DHT22;17114;52.314;8.910;2023-04-01T01:56:12;9.40;99.90
30308;DHT22;17114;52.314;8.910;2023-04-01T01:58:44;9.60;99.90
30308;DHT22;17114;52.314;8.910;2023-04-01T02:01:15;9.60;99.90
30308;DHT22;17114;52.314;8.910;2023-04-01T02:03:43;9.50;99.90
30308;DHT22;17114;52.314;8.910;2023-04-01T02:06:15;9.50;99.90
30308;DHT22;17114;52.314;8.910;2023-04-01T02:08:55;9.50;99.90
30308;DHT22;17114;52.314;8.910;2023-04-01T02:12:00;9.50;99.90
30308;DHT22;17114;52.314;8.910;2023-04-01T02:14:25;9.50;99.90
30308;DHT22;17114;52.314;8.910;2023-04-01T02:17:07;9.50;99.90
30308;DHT22;17114;52.314;8.910;2023-04-01T02:19:59;9.50;99.90
30308;DHT22;17114;52.314;8.910;2023-04-01T02:22:29;9.50;99.90
30308;DHT22;17114;52.314;8.910;2023-04-01T02:25:02;9.50;99.90
30308;DHT22;17114;52.314;8.910;2023-04-01T02:27:31;9.40;99.90
30308;DHT22;17114;52.314;8.910;2023-04-01T02:29:58;9.40;99.90
30308;DHT22;17114;52.314;8.910;2023-04-01T02:32:27;9.40;99.90
30308;DHT22;17114;52.314;8.910;2023-04-01T02:34:56;9.40;99.90
30308;DHT22;17114;52.314;8.910;2023-04-01T02:37:23;9.40;99.90
30308;DHT22;17114;52.314;8.910;2023-04-01T02:39:50;9.40;99.90
30308;DHT22;17114;52.314;8.910;2023-04-01T02:42:17;9.40;99.90
30308;DHT22;17114;52.314;8.910;2023-04-01T02:44:44;9.30;99.90
30308;DHT22;17114;52.314;8.910;2023-04-01T02:47:11;9.30;99.90
30308;DHT22;17114;52.314;8.910;2023-04-01T02:49:39;9.30;99.90
30308;DHT22;17114;52.314;8.910;2023-04-01T02:52:06;9.50;99.90
30308;DHT22;17114;52.314;8.910;2023-04-01T02:54:33;9.30;99.90
30308;DHT22;17114;52.314;8.910;2023-04-01T02:57:00;9.30;99.90
30308;DHT22;17114;52.314;8.910;2023-04-01T02:59:27;9.30;99.90
30308;DHT22;17114;52.314;8.910;2023-04-01T03:01:53;9.40;99.90
30308;DHT22;17114;52.314;8.910;2023-04-01T03:04:20;9.30;99.90
30308;DHT22;17114;52.314;8.910;2023-04-01T03:06:47;9.20;99.90
30308;DHT22;17114;52.314;8.910;2023-04-01T03:09:14;9.20;99.90
30308;DHT22;17114;52.314;8.910;2023-04-01T03:11:41;9.30;99.90
30308;DHT22;17114;52.314;8.910;2023-04-01T03:14:08;9.30;99.90
30308;DHT22;17114;52.314;8.910;2023-04-01T03:16:35;9.20;99.90
30308;DHT22;17114;52.314;8.910;2023-04-01T03:19:02;9.20;99.90
30308;DHT22;17114;52.314;8.910;2023-04-01T03:21:29;9.20;99.90
30308;DHT22;17114;52.314;8.910;2023-04-01T03:23:55;9.20;99.90
30308;DHT22;17114;52.314;8.910;2023-04-01T03:26:22;9.20;99.90
30308;DHT22;17114;52.314;8.910;2023-04-01T03:28:49;9.20;99.90
30308;DHT22;17114;52.314;8.910;2023-04-01T03:31:16;9.30;99.90
30308;DHT22;17114;52.314;8.910;2023-04-01T03:33:43;9.20;99.90
30308;DHT22;17114;52.314;8.910;2023-04-01T03:36:10;9.20;99.90
30308;DHT22;17114;52.314;8.910;2023-04-01T03:38:42;9.20;99.90
30308;DHT22;17114;52.314;8.910;2023-04-01T03:41:14;9.20;99.90
30308;DHT22;17114;52.314;8.910;2023-04-01T03:43:41;9.20;99.90
30308;DHT22;17114;52.314;8.910;2023-04-01T03:46:09;9.20;99.90
30308;DHT22;17114;52.314;8.910;2023-04-01T03:48:36;9.20;99.90
30308;DHT22;17114;52.314;8.910;2023-04-01T03:51:07;9.20;99.90
30308;DHT22;17114;52.314;8.910;2023-04-01T03:53:34;9.20;99.90
30308;DHT22;17114;52.314;8.910;2023-04-01T03:56:08;9.20;99.90
30308;DHT22;17114;52.314;8.910;2023-04-01T03:58:35;9.10;99.90
30308;DHT22;17114;52.314;8.910;2023-04-01T04:01:03;9.10;99.90
30308;DHT22;17114;52.314;8.910;2023-04-01T04:03:30;9.10;99.90
30308;DHT22;17114;52.314;8.910;2023-04-01T04:05:57;9.10;99.90
30308;DHT22;17114;52.314;8.910;2023-04-01T04:08:24;9.10;99.90
30308;DHT22;17114;52.314;8.910;2023-04-01T04:10:57;9.10;99.90
30308;DHT22;17114;52.314;8.910;2023-04-01T04:13:24;9.10;99.90
30308;DHT22;17114;52.314;8.910;2023-04-01T04:15:51;9.20;99.90
30308;DHT22;17114;52.314;8.910;2023-04-01T04:18:18;9.20;99.90
30308;DHT22;17114;52.314;8.910;2023-04-01T04:20:45;9.20;99.90
30308;DHT22;17114;52.314;8.910;2023-04-01T04:23:14;9.20;99.90
30308;DHT22;17114;52.314;8.910;2023-04-01T04:25:41;9.10;99.90
30308;DHT22;17114;52.314;8.910;2023-04-01T04:28:19;9.10;99.90
30308;DHT22;17114;52.314;8.910;2023-04-01T04:30:45;9.10;99.90
30308;DHT22;17114;52.314;8.910;2023-04-01T04:33:12;9.10;99.90
30308;DHT22;17114;52.314;8.910;2023-04-01T04:35:39;9.10;99.90
30308;DHT22;17114;52.314;8.910;2023-04-01T04:38:06;9.10;99.90
30308;DHT22;17114;52.314;8.910;2023-04-01T04:40:33;9.10;99.90
30308;DHT22;17114;52.314;8.910;2023-04-01T04:42:59;9.10;99.90
30308;DHT22;17114;52.314;8.910;2023-04-01T04:45:26;9.10;99.90
30308;DHT22;17114;52.314;8.910;2023-04-01T04:47:53;9.10;99.90
30308;DHT22;17114;52.314;8.910;2023-04-01T04:50:20;9.00;99.90
30308;DHT22;17114;52.314;8.910;2023-04-01T04:52:47;9.10;99.90
30308;DHT22;17114;52.314;8.910;2023-04-01T04:55:14;9.20;99.90
30308;DHT22;17114;52.314;8.910;2023-04-01T04:57:41;9.10;99.90
30308;DHT22;17114;52.314;8.910;2023-04-01T05:00:09;9.20;99.90
30308;DHT22;17114;52.314;8.910;2023-04-01T05:02:39;9.10;99.90
30308;DHT22;17114;52.314;8.910;2023-04-01T05:05:06;9.10;99.90
30308;DHT22;17114;52.314;8.910;2023-04-01T05:07:33;9.10;99.90
30308;DHT22;17114;52.314;8.910;2023-04-01T05:10:00;9.10;99.90
30308;DHT22;17114;52.314;8.910;2023-04-01T05:12:27;9.10;99.90
30308;DHT22;17114;52.314;8.910;2023-04-01T05:14:54;9.10;99.90
30308;DHT22;17114;52.314;8.910;2023-04-01T05:17:21;9.10;99.90
30308;DHT22;17114;52.314;8.910;2023-04-01T05:19:48;9.20;99.90
30308;DHT22;17114;52.314;8.910;2023-04-01T05:22:15;9.10;99.90
30308;DHT22;17114;52.314;8.910;2023-04-01T05:24:41;9.10;99.90
30308;DHT22;17114;52.314;8.910;2023-04-01T05:27:08;9.20;99.90
30308;DHT22;17114;52.314;8.910;2023-04-01T05:29:35;9.20;99.90
30308;DHT22;17114;52.314;8.910;2023-04-01T05:32:02;9.10;99.90
30308;DHT22;17114;52.314;8.910;2023-04-01T05:34:29;9.10;99.90
30308;DHT22;17114;52.314;8.910;2023-04-01T05:36:56;9.10;99.90
30308;DHT22;17114;52.314;8.910;2023-04-01T05:39:23;9.20;99.90
30308;DHT22;17114;52.314;8.910;2023-04-01T05:41:50;9.20;99.90
30308;DHT22;17114;52.314;8.910;2023-04-01T05:44:16;9.20;99.90
30308;DHT22;17114;52.314;8.910;2023-04-01T05:46:43;9.20;99.90
30308;DHT22;17114;52.314;8.910;2023-04-01T05:49:10;9.30;99.90
30308;DHT22;17114;52.314;8.910;2023-04-01T05:51:37;9.20;99.90
30308;DHT22;17114;52.314;8.910;2023-04-01T05:54:05;9.20;99.90
30308;DHT22;17114;52.314;8.910;2023-04-01T05:56:31;9.30;99.90
30308;DHT22;17114;52.314;8.910;2023-04-01T05:58:58;9.30;99.90
30308;DHT22;17114;52.314;8.910;2023-04-01T06:01:25;9.30;99.90
30308;DHT22;17114;52.314;8.910;2023-04-01T06:03:52;9.30;99.90
30308;DHT22;17114;52.314;8.910;2023-04-01T06:06:30;9.30;99.90
30308;DHT22;17114;52.314;8.910;2023-04-01T06:09:18;9.30;99.90
30308;DHT22;17114;52.314;8.910;2023-04-01T06:14:34;9.30;99.90
30308;DHT22;17114;52.314;8.910;2023-04-01T06:17:22;9.30;99.90
30308;DHT22;17114;52.314;8.910;2023-04-01T06:20:00;9.40;99.90
30308;DHT22;17114;52.314;8.910;2023-04-01T06:33:42;9.50;99.90
30308;DHT22;17114;52.314;8.910;2023-04-01T06:36:35;9.50;99.90
30308;DHT22;17114;52.314;8.910;2023-04-01T06:42:21;9.60;99.90
30308;DHT22;17114;52.314;8.910;2023-04-01T06:45:15;9.60;99.90
30308;DHT22;17114;52.314;8.910;2023-04-01T06:47:52;9.60;99.90
30308;DHT22;17114;52.314;8.910;2023-04-01T06:50:30;9.50;99.90
30308;DHT22;17114;52.314;8.910;2023-04-01T06:53:12;9.50;99.90
30308;DHT22;17114;52.314;8.910;2023-04-01T06:55:46;9.40;99.90
30308;DHT22;17114;52.314;8.910;2023-04-01T06:58:23;9.40;99.90
30308;DHT22;17114;52.314;8.910;2023-04-01T07:01:03;9.40;99.90
30308;DHT22;17114;52.314;8.910;2023-04-01T07:03:38;9.40;99.90
30308;DHT22;17114;52.314;8.910;2023-04-01T07:06:10;9.40;99.90
30308;DHT22;17114;52.314;8.910;2023-04-01T07:08:41;9.30;99.90
30308;DHT22;17114;52.314;8.910;2023-04-01T07:11:11;9.30;99.90
30308;DHT22;17114;52.314;8.910;2023-04-01T07:13:43;9.30;99.90
30308;DHT22;17114;52.314;8.910;2023-04-01T07:16:19;9.30;99.90
30308;DHT22;17114;52.314;8.910;2023-04-01T07:21:48;9.50;99.90
30308;DHT22;17114;52.314;8.910;2023-04-01T07:24:35;9.40;99.90
30308;DHT22;17114;52.314;8.910;2023-04-01T07:27:04;9.50;99.90
30308;DHT22;17114;52.314;8.910;2023-04-01T07:29:31;9.60;99.90
30308;DHT22;17114;52.314;8.910;2023-04-01T07:46:11;9.90;99.90
30308;DHT22;17114;52.314;8.910;2023-04-01T07:48:47;10.00;99.90
30308;DHT22;17114;52.314;8.910;2023-04-01T08:05:41;10.30;99.90
30308;DHT22;17114;52.314;8.910;2023-04-01T08:08:23;10.40;99.90
30308;DHT22;17114;52.314;8.910;2023-04-01T08:11:11;10.50;99.90
30308;DHT22;17114;52.314;8.910;2023-04-01T08:17:08;10.70;99.90
30308;DHT22;17114;52.314;8.910;2023-04-01T08:22:30;10.80;99.90
30308;DHT22;17114;52.314;8.910;2023-04-01T08:25:02;10.90;99.90
30308;DHT22;17114;52.314;8.910;2023-04-01T08:27:41;10.90;99.90
30308;DHT22;17114;52.314;8.910;2023-04-01T08:30:23;10.90;99.90
30308;DHT22;17114;52.314;8.910;2023-04-01T08:33:32;11.00;99.90
30308;DHT22;17114;52.314;8.910;2023-04-01T08:35:51;11.00;99.90
30308;DHT22;17114;52.314;8.910;2023-04-01T08:38:25;11.00;99.90
30308;DHT22;17114;52.314;8.910;2023-04-01T08:44:29;11.00;99.90
30308;DHT22;17114;52.314;8.910;2023-04-01T08:47:09;11.00;99.90
30308;DHT22;17114;52.314;8.910;2023-04-01T08:53:07;10.90;99.90
30308;DHT22;17114;52.314;8.910;2023-04-01T08:56:03;10.90;99.90
30308;DHT22;17114;52.314;8.910;2023-04-01T08:58:57;10.90;99.90
30308;DHT22;17114;52.314;8.910;2023-04-01T09:01:54;10.80;99.90
30308;DHT22;17114;52.314;8.910;2023-04-01T09:12:45;10.80;99.90
30308;DHT22;17114;52.314;8.910;2023-04-01T09:21:24;10.80;99.90
30308;DHT22;17114;52.314;8.910;2023-04-01T09:41:14;10.80;99.90
30308;DHT22;17114;52.314;8.910;2023-04-01T09:43:56;10.70;99.90
30308;DHT22;17114;52.314;8.910;2023-04-01T09:54:11;10.90;99.90
30308;DHT22;17114;52.314;8.910;2023-04-01T10:09:25;11.10;99.90
30308;DHT22;17114;52.314;8.910;2023-04-01T10:32:36;11.20;99.90
30308;DHT22;17114;52.314;8.910;2023-04-01T11:21:50;12.00;99.90
30308;DHT22;17114;52.314;8.910;2023-04-01T11:33:19;12.20;99.90
30308;DHT22;17114;52.314;8.910;2023-04-01T11:36:20;12.40;99.90
30308;DHT22;17114;52.314;8.910;2023-04-01T11:39:14;12.50;99.90
30308;DHT22;17114;52.314;8.910;2023-04-01T11:58:43;11.90;99.90
30308;DHT22;17114;52.314;8.910;2023-04-01T12:08:10;11.80;99.90
30308;DHT22;17114;52.314;8.910;2023-04-01T12:13:42;11.80;99.90
30308;DHT22;17114;52.314;8.910;2023-04-01T12:27:12;12.30;99.90
30308;DHT22;17114;52.314;8.910;2023-04-01T12:40:46;12.20;99.90
30308;DHT22;17114;52.314;8.910;2023-04-01T12:46:21;12.30;99.90
30308;DHT22;17114;52.314;8.910;2023-04-01T12:49:27;12.30;99.90
30308;DHT22;17114;52.314;8.910;2023-04-01T12:52:05;12.50;99.90
30308;DHT22;17114;52.314;8.910;2023-04-01T13:02:59;12.40;99.90
30308;DHT22;17114;52.314;8.910;2023-04-01T13:15:19;12.50;99.90
30308;DHT22;17114;52.314;8.910;2023-04-01T13:23:09;12.50;99.90
30308;DHT22;17114;52.314;8.910;2023-04-01T13:28:28;12.20;99.90
30308;DHT22;17114;52.314;8.910;2023-04-01T13:31:02;12.10;99.90
30308;DHT22;17114;52.314;8.910;2023-04-01T13:33:43;12.20;99.90
30308;DHT22;17114;52.314;8.910;2023-04-01T13:39:14;12.30;99.90
30308;DHT22;17114;52.314;8.910;2023-04-01T13:45:02;12.30;99.90
30308;DHT22;17114;52.314;8.910;2023-04-01T13:50:34;12.30;99.90
30308;DHT22;17114;52.314;8.910;2023-04-01T13:53:06;12.30;99.90
30308;DHT22;17114;52.314;8.910;2023-04-01T13:58:55;12.40;99.90
30308;DHT22;17114;52.314;8.910;2023-04-01T14:01:24;12.40;99.90
30308;DHT22;17114;52.314;8.910;2023-04-01T14:04:53;12.40;99.90
30308;DHT22;17114;52.314;8.910;2023-04-01T14:07:14;12.40;99.90
30308;DHT22;17114;52.314;8.910;2023-04-01T14:09:52;12.30;99.90
30308;DHT22;17114;52.314;8.910;2023-04-01T14:15:25;12.10;99.90
30308;DHT22;17114;52.314;8.910;2023-04-01T14:18:41;12.10;99.90
30308;DHT22;17114;52.314;8.910;2023-04-01T14:21:20;12.20;99.90
30308;DHT22;17114;52.314;8.910;2023-04-01T14:27:12;12.40;99.90
30308;DHT22;17114;52.314;8.910;2023-04-01T14:32:56;12.40;99.90
30308;DHT22;17114;52.314;8.910;2023-04-01T14:38:31;12.30;99.90
30308;DHT22;17114;52.314;8.910;2023-04-01T14:41:19;12.30;99.90
30308;DHT22;17114;52.314;8.910;2023-04-01T14:44:05;12.30;99.90
30308;DHT22;17114;52.314;8.910;2023-04-01T14:49:48;12.20;99.90
30308;DHT22;17114;52.314;8.910;2023-04-01T14:52:28;12.30;99.90
30308;DHT22;17114;52.314;8.910;2023-04-01T14:54:56;12.30;99.90
30308;DHT22;17114;52.314;8.910;2023-04-01T14:57:27;12.30;99.90
30308;DHT22;17114;52.314;8.910;2023-04-01T15:00:13;12.40;99.90
30308;DHT22;17114;52.314;8.910;2023-04-01T15:05:46;11.80;99.90
30308;DHT22;17114;52.314;8.910;2023-04-01T15:08:29;11.30;99.90
30308;DHT22;17114;52.314;8.910;2023-04-01T15:13:44;10.40;99.90
30308;DHT22;17114;52.314;8.910;2023-04-01T15:16:59;10.30;99.90
30308;DHT22;17114;52.314;8.910;2023-04-01T15:22:36;10.10;99.90
30308;DHT22;17114;52.314;8.910;2023-04-01T15:37:14;9.60;99.90
30308;DHT22;17114;52.314;8.910;2023-04-01T15:40:08;9.50;99.90
30308;DHT22;17114;52.314;8.910;2023-04-01T15:56:49;9.30;99.90
30308;DHT22;17114;52.314;8.910;2023-04-01T15:59:50;9.20;99.90
30308;DHT22;17114;52.314;8.910;2023-04-01T16:10:19;9.10;99.90
30308;DHT22;17114;52.314;8.910;2023-04-01T16:13:42;9.00;99.90
30308;DHT22;17114;52.314;8.910;2023-04-01T16:16:28;9.00;99.90
30308;DHT22;17114;52.314;8.910;2023-04-01T16:21:56;8.90;99.90
30308;DHT22;17114;52.314;8.910;2023-04-01T16:24:34;8.90;99.90
30308;DHT22;17114;52.314;8.910;2023-04-01T16:29:40;8.80;99.90
30308;DHT22;17114;52.314;8.910;2023-04-01T16:37:54;8.80;99.90
30308;DHT22;17114;52.314;8.910;2023-04-01T16:43:30;8.60;99.90
30308;DHT22;17114;52.314;8.910;2023-04-01T16:46:34;8.50;99.90
30308;DHT22;17114;52.314;8.910;2023-04-01T17:02:28;8.30;99.90
30308;DHT22;17114;52.314;8.910;2023-04-01T17:05:11;8.20;99.90
30308;DHT22;17114;52.314;8.910;2023-04-01T17:08:13;8.20;99.90
30308;DHT22;17114;52.314;8.910;2023-04-01T17:10:53;8.20;99.90
30308;DHT22;17114;52.314;8.910;2023-04-01T17:13:40;8.20;99.90
30308;DHT22;17114;52.314;8.910;2023-04-01T17:16:16;8.10;99.90
30308;DHT22;17114;52.314;8.910;2023-04-01T17:19:37;8.00;99.90
30308;DHT22;17114;52.314;8.910;2023-04-01T17:28:04;7.80;99.90
30308;DHT22;17114;52.314;8.910;2023-04-01T17:35:58;7.60;99.90
30308;DHT22;17114;52.314;8.910;2023-04-01T17:44:20;7.50;99.90
30308;DHT22;17114;52.314;8.910;2023-04-01T17:49:56;7.40;99.90
30308;DHT22;17114;52.314;8.910;2023-04-01T17:52:52;7.30;99.90
30308;DHT22;17114;52.314;8.910;2023-04-01T18:06:21;7.20;99.90
30308;DHT22;17114;52.314;8.910;2023-04-01T18:17:24;7.20;99.90
30308;DHT22;17114;52.314;8.910;2023-04-01T18:20:15;7.00;99.90
30308;DHT22;17114;52.314;8.910;2023-04-01T18:22:55;7.00;99.90
30308;DHT22;17114;52.314;8.910;2023-04-01T18:25:35;7.00;99.90
30308;DHT22;17114;52.314;8.910;2023-04-01T18:33:50;6.90;99.90
30308;DHT22;17114;52.314;8.910;2023-04-01T18:36:44;6.80;99.90
30308;DHT22;17114;52.314;8.910;2023-04-01T18:56:06;6.60;99.90
30308;DHT22;17114;52.314;8.910;2023-04-01T18:58:49;6.50;99.90
30308;DHT22;17114;52.314;8.910;2023-04-01T19:03:57;6.40;99.90
30308;DHT22;17114;52.314;8.910;2023-04-01T19:06:29;6.40;99.90
30308;DHT22;17114;52.314;8.910;2023-04-01T19:18:06;6.30;99.90
30308;DHT22;17114;52.314;8.910;2023-04-01T19:20:41;6.30;99.90
30308;DHT22;17114;52.314;8.910;2023-04-01T19:26:40;6.30;99.90
30308;DHT22;17114;52.314;8.910;2023-04-01T19:35:09;6.30;99.90
30308;DHT22;17114;52.314;8.910;2023-04-01T19:37:45;6.30;99.90
30308;DHT22;17114;52.314;8.910;2023-04-01T19:43:07;6.30;99.90
30308;DHT22;17114;52.314;8.910;2023-04-01T19:45:51;6.30;99.90
30308;DHT22;17114;52.314;8.910;2023-04-01T19:48:39;6.20;99.90
30308;DHT22;17114;52.314;8.910;2023-04-01T19:51:28;6.20;99.90
30308;DHT22;17114;52.314;8.910;2023-04-01T19:59:46;6.00;99.90
30308;DHT22;17114;52.314;8.910;2023-04-01T20:02:32;6.00;99.90
30308;DHT22;17114;52.314;8.910;2023-04-01T20:05:15;5.90;99.90
30308;DHT22;17114;52.314;8.910;2023-04-01T20:07:51;6.00;99.90
30308;DHT22;17114;52.314;8.910;2023-04-01T20:10:30;6.00;99.90
30308;DHT22;17114;52.314;8.910;2023-04-01T20:14:15;6.00;99.90
30308;DHT22;17114;52.314;8.910;2023-04-01T20:16:09;6.00;99.90
30308;DHT22;17114;52.314;8.910;2023-04-01T20:18:50;6.00;99.90
30308;DHT22;17114;52.314;8.910;2023-04-01T20:21:33;6.00;99.90
30308;DHT22;17114;52.314;8.910;2023-04-01T20:26:44;5.80;99.90
30308;DHT22;17114;52.314;8.910;2023-04-01T20:29:23;5.70;99.90
30308;DHT22;17114;52.314;8.910;2023-04-01T20:32:33;5.80;99.90
30308;DHT22;17114;52.314;8.910;2023-04-01T20:38:04;5.70;99.90
30308;DHT22;17114;52.314;8.910;2023-04-01T20:40:38;5.70;99.90
30308;DHT22;17114;52.314;8.910;2023-04-01T20:46:20;5.70;99.90
30308;DHT22;17114;52.314;8.910;2023-04-01T20:51:24;5.60;99.90
30308;DHT22;17114;52.314;8.910;2023-04-01T20:57:00;5.40;99.90
30308;DHT22;17114;52.314;8.910;2023-04-01T21:02:51;5.30;99.90
30308;DHT22;17114;52.314;8.910;2023-04-01T21:08:09;5.30;99.90
30308;DHT22;17114;52.314;8.910;2023-04-01T21:13:17;5.30;99.90
30308;DHT22;17114;52.314;8.910;2023-04-01T21:16:14;5.30;99.90
30308;DHT22;17114;52.314;8.910;2023-04-01T21:41:43;5.10;99.90
30308;DHT22;17114;52.314;8.910;2023-04-01T21:45:15;5.00;99.90
30308;DHT22;17114;52.314;8.910;2023-04-01T21:53:25;4.90;99.90
30308;DHT22;17114;52.314;8.910;2023-04-01T21:56:34;4.80;99.90
30308;DHT22;17114;52.314;8.910;2023-04-01T22:05:14;4.80;99.90
30308;DHT22;17114;52.314;8.910;2023-04-01T22:07:52;4.80;99.90
30308;DHT22;17114;52.314;8.910;2023-04-01T22:10:41;4.90;99.90
30308;DHT22;17114;52.314;8.910;2023-04-01T22:13:18;4.80;99.90
30308;DHT22;17114;52.314;8.910;2023-04-01T22:21:45;4.70;99.90
30308;DHT22;17114;52.314;8.910;2023-04-01T22:25:21;4.70;99.90
30308;DHT22;17114;52.314;8.910;2023-04-01T22:30:24;4.80;99.90
30308;DHT22;17114;52.314;8.910;2023-04-01T22:43:39;4.60;99.90
30308;DHT22;17114;52.314;8.910;2023-04-01T22:51:47;4.40;99.90
30308;DHT22;17114;52.314;8.910;2023-04-01T22:57:49;4.30;99.90
30308;DHT22;17114;52.314;8.910;2023-04-01T23:00:21;4.30;99.90
30308;DHT22;17114;52.314;8.910;2023-04-01T23:06:05;4.30;99.90
30308;DHT22;17114;52.314;8.910;2023-04-01T23:11:30;4.10;99.90
30308;DHT22;17114;52.314;8.910;2023-04-01T23:23:08;4.10;99.90
30308;DHT22;17114;52.314;8.910;2023-04-01T23:28:48;4.00;99.90
30308;DHT22;17114;52.314;8.910;2023-04-01T23:31:43;4.00;99.90
30308;DHT22;17114;52.314;8.910;2023-04-01T23:36:46;3.90;99.90
30308;DHT22;17114;52.314;8.910;2023-04-01T23:41:53;3.90;99.90
30308;DHT22;17114;52.314;8.910;2023-04-01T23:44:21;3.90;99.90
30308;DHT22;17114;52.314;8.910;2023-04-01T23:46:51;3.90;99.90
30308;DHT22;17114;52.314;8.910;2023-04-01T23:49:22;3.90;99.90
30308;DHT22;17114;52.314;8.910;2023-04-01T23:51:58;3.90;99.90
30308;DHT22;17114;52.314;8.910;2023-04-01T23:54:34;3.90;99.90
30308;DHT22;17114;52.314;8.910;2023-04-01T23:57:11;3.80;99.90
30308;DHT22;17114;52.314;8.910;2023-04-01T23:59:40;3.70;99.90
